sensor_id;sensor_type;location;lat;lon;timestamp;P1;durP1;ratioP1;P2;durP2;ratioP2
11653;SDS011;5883;48.818;9.114;2023-08-06T00:00:48;3.13;;;2.53;;
11653;SDS011;5883;48.818;9.114;2023-08-06T00:03:33;3.25;;;2.95;;
11653;SDS011;5883;48.818;9.114;2023-08-06T00:06:20;3.50;;;2.80;;
11653;SDS011;5883;48.818;9.114;2023-08-06T00:09:05;3.35;;;2.75;;
11653;SDS011;5883;48.818;9.114;2023-08-06T00:11:51;4.57;;;3.13;;
11653;SDS011;5883;48.818;9.114;2023-08-06T00:14:36;3.40;;;2.60;;
11653;SDS011;5883;48.818;9.114;2023-08-06T00:17:21;3.45;;;2.50;;
11653;SDS011;5883;48.818;9.114;2023-08-06T00:20:07;3.42;;;2.53;;
11653;SDS011;5883;48.818;9.114;2023-08-06T00:22:52;2.47;;;2.28;;
11653;SDS011;5883;48.818;9.114;2023-08-06T00:25:37;2.35;;;1.85;;
11653;SDS011;5883;48.818;9.114;2023-08-06T00:28:26;3.33;;;2.67;;
11653;SDS011;5883;48.818;9.114;2023-08-06T00:31:11;2.50;;;2.30;;
11653;SDS011;5883;48.818;9.114;2023-08-06T00:33:56;2.40;;;2.20;;
11653;SDS011;5883;48.818;9.114;2023-08-06T00:36:42;3.05;;;2.75;;
11653;SDS011;5883;48.818;9.114;2023-08-06T00:39:27;3.10;;;2.20;;
11653;SDS011;5883;48.818;9.114;2023-08-06T00:42:12;2.80;;;2.38;;
11653;SDS011;5883;48.818;9.114;2023-08-06T00:44:59;2.45;;;2.25;;
11653;SDS011;5883;48.818;9.114;2023-08-06T00:47:47;3.58;;;2.20;;
11653;SDS011;5883;48.818;9.114;2023-08-06T00:50:34;2.60;;;2.40;;
11653;SDS011;5883;48.818;9.114;2023-08-06T00:53:20;3.47;;;2.15;;
11653;SDS011;5883;48.818;9.114;2023-08-06T00:56:05;5.30;;;2.40;;
11653;SDS011;5883;48.818;9.114;2023-08-06T00:58:50;3.10;;;2.47;;
11653;SDS011;5883;48.818;9.114;2023-08-06T01:01:37;2.72;;;2.38;;
11653;SDS011;5883;48.818;9.114;2023-08-06T01:04:22;3.03;;;2.72;;
11653;SDS011;5883;48.818;9.114;2023-08-06T01:07:10;2.58;;;2.15;;
11653;SDS011;5883;48.818;9.114;2023-08-06T01:10:08;3.92;;;2.63;;
11653;SDS011;5883;48.818;9.114;2023-08-06T01:12:58;4.75;;;2.50;;
11653;SDS011;5883;48.818;9.114;2023-08-06T01:15:46;3.75;;;2.20;;
11653;SDS011;5883;48.818;9.114;2023-08-06T01:18:33;2.67;;;2.47;;
11653;SDS011;5883;48.818;9.114;2023-08-06T01:21:20;4.22;;;2.20;;
11653;SDS011;5883;48.818;9.114;2023-08-06T01:24:06;3.40;;;2.60;;
11653;SDS011;5883;48.818;9.114;2023-08-06T01:26:53;2.47;;;2.17;;
11653;SDS011;5883;48.818;9.114;2023-08-06T01:29:41;4.55;;;2.40;;
11653;SDS011;5883;48.818;9.114;2023-08-06T01:32:30;3.20;;;2.90;;
11653;SDS011;5883;48.818;9.114;2023-08-06T01:35:17;2.25;;;2.05;;
11653;SDS011;5883;48.818;9.114;2023-08-06T01:38:04;4.22;;;2.42;;
11653;SDS011;5883;48.818;9.114;2023-08-06T01:40:49;5.82;;;2.20;;
11653;SDS011;5883;48.818;9.114;2023-08-06T01:43:34;4.50;;;2.22;;
11653;SDS011;5883;48.818;9.114;2023-08-06T01:46:23;2.88;;;2.00;;
11653;SDS011;5883;48.818;9.114;2023-08-06T01:49:08;5.40;;;2.45;;
11653;SDS011;5883;48.818;9.114;2023-08-06T01:51:53;4.07;;;2.25;;
11653;SDS011;5883;48.818;9.114;2023-08-06T01:54:39;5.60;;;2.40;;
11653;SDS011;5883;48.818;9.114;2023-08-06T01:57:25;2.63;;;2.22;;
11653;SDS011;5883;48.818;9.114;2023-08-06T02:00:10;2.83;;;2.10;;
11653;SDS011;5883;48.818;9.114;2023-08-06T02:02:55;2.47;;;2.22;;
11653;SDS011;5883;48.818;9.114;2023-08-06T02:05:42;2.88;;;2.25;;
11653;SDS011;5883;48.818;9.114;2023-08-06T02:08:27;1.95;;;1.80;;
11653;SDS011;5883;48.818;9.114;2023-08-06T02:11:14;4.05;;;2.20;;
11653;SDS011;5883;48.818;9.114;2023-08-06T02:13:59;3.65;;;2.33;;
11653;SDS011;5883;48.818;9.114;2023-08-06T02:16:44;2.40;;;2.10;;
11653;SDS011;5883;48.818;9.114;2023-08-06T02:19:30;2.85;;;2.22;;
11653;SDS011;5883;48.818;9.114;2023-08-06T02:22:14;2.60;;;2.13;;
11653;SDS011;5883;48.818;9.114;2023-08-06T02:24:59;2.38;;;2.10;;
11653;SDS011;5883;48.818;9.114;2023-08-06T02:27:46;3.28;;;2.50;;
11653;SDS011;5883;48.818;9.114;2023-08-06T02:30:31;4.05;;;2.10;;
11653;SDS011;5883;48.818;9.114;2023-08-06T02:33:15;2.58;;;2.38;;
11653;SDS011;5883;48.818;9.114;2023-08-06T02:36:00;3.92;;;2.25;;
11653;SDS011;5883;48.818;9.114;2023-08-06T02:38:47;5.32;;;2.65;;
11653;SDS011;5883;48.818;9.114;2023-08-06T02:41:35;3.72;;;2.08;;
11653;SDS011;5883;48.818;9.114;2023-08-06T02:44:21;5.18;;;2.50;;
11653;SDS011;5883;48.818;9.114;2023-08-06T02:47:07;3.40;;;2.10;;
11653;SDS011;5883;48.818;9.114;2023-08-06T02:49:52;2.88;;;2.03;;
11653;SDS011;5883;48.818;9.114;2023-08-06T02:52:37;2.33;;;2.10;;
11653;SDS011;5883;48.818;9.114;2023-08-06T02:55:23;3.95;;;1.90;;
11653;SDS011;5883;48.818;9.114;2023-08-06T02:58:08;2.40;;;2.20;;
11653;SDS011;5883;48.818;9.114;2023-08-06T03:01:01;2.85;;;2.00;;
11653;SDS011;5883;48.818;9.114;2023-08-06T03:03:46;2.65;;;2.10;;
11653;SDS011;5883;48.818;9.114;2023-08-06T03:06:31;2.20;;;2.00;;
11653;SDS011;5883;48.818;9.114;2023-08-06T03:09:16;3.65;;;2.40;;
11653;SDS011;5883;48.818;9.114;2023-08-06T03:12:01;3.17;;;2.10;;
11653;SDS011;5883;48.818;9.114;2023-08-06T03:14:46;2.55;;;2.03;;
11653;SDS011;5883;48.818;9.114;2023-08-06T03:17:32;4.63;;;2.28;;
11653;SDS011;5883;48.818;9.114;2023-08-06T03:20:17;3.30;;;2.13;;
11653;SDS011;5883;48.818;9.114;2023-08-06T03:23:02;3.17;;;2.08;;
11653;SDS011;5883;48.818;9.114;2023-08-06T03:25:47;5.88;;;2.03;;
11653;SDS011;5883;48.818;9.114;2023-08-06T03:28:32;4.38;;;2.00;;
11653;SDS011;5883;48.818;9.114;2023-08-06T03:31:17;2.97;;;1.90;;
11653;SDS011;5883;48.818;9.114;2023-08-06T03:34:04;3.03;;;1.92;;
11653;SDS011;5883;48.818;9.114;2023-08-06T03:36:49;5.65;;;2.30;;
11653;SDS011;5883;48.818;9.114;2023-08-06T03:39:34;2.85;;;1.77;;
11653;SDS011;5883;48.818;9.114;2023-08-06T03:42:18;3.25;;;1.80;;
11653;SDS011;5883;48.818;9.114;2023-08-06T03:45:06;2.15;;;1.77;;
11653;SDS011;5883;48.818;9.114;2023-08-06T03:47:52;2.65;;;1.92;;
11653;SDS011;5883;48.818;9.114;2023-08-06T03:50:38;2.47;;;2.00;;
11653;SDS011;5883;48.818;9.114;2023-08-06T03:53:23;2.55;;;1.90;;
11653;SDS011;5883;48.818;9.114;2023-08-06T03:56:08;2.33;;;1.92;;
11653;SDS011;5883;48.818;9.114;2023-08-06T03:58:54;6.13;;;1.80;;
11653;SDS011;5883;48.818;9.114;2023-08-06T04:01:39;4.38;;;2.05;;
11653;SDS011;5883;48.818;9.114;2023-08-06T04:04:24;2.75;;;2.00;;
11653;SDS011;5883;48.818;9.114;2023-08-06T04:07:11;6.65;;;1.88;;
11653;SDS011;5883;48.818;9.114;2023-08-06T04:09:57;2.25;;;1.95;;
11653;SDS011;5883;48.818;9.114;2023-08-06T04:12:42;2.97;;;2.10;;
11653;SDS011;5883;48.818;9.114;2023-08-06T04:15:27;2.55;;;1.55;;
11653;SDS011;5883;48.818;9.114;2023-08-06T04:18:12;5.32;;;1.98;;
11653;SDS011;5883;48.818;9.114;2023-08-06T04:20:57;3.83;;;2.17;;
11653;SDS011;5883;48.818;9.114;2023-08-06T04:23:44;2.92;;;2.10;;
11653;SDS011;5883;48.818;9.114;2023-08-06T04:26:28;2.60;;;2.00;;
11653;SDS011;5883;48.818;9.114;2023-08-06T04:29:13;2.78;;;2.03;;
11653;SDS011;5883;48.818;9.114;2023-08-06T04:31:59;2.33;;;1.83;;
11653;SDS011;5883;48.818;9.114;2023-08-06T04:34:44;4.55;;;2.00;;
11653;SDS011;5883;48.818;9.114;2023-08-06T04:37:30;1.92;;;1.73;;
11653;SDS011;5883;48.818;9.114;2023-08-06T04:40:17;2.85;;;1.75;;
11653;SDS011;5883;48.818;9.114;2023-08-06T04:43:02;4.03;;;2.30;;
11653;SDS011;5883;48.818;9.114;2023-08-06T04:45:48;5.35;;;1.88;;
11653;SDS011;5883;48.818;9.114;2023-08-06T04:48:33;4.00;;;2.50;;
11653;SDS011;5883;48.818;9.114;2023-08-06T04:51:19;5.15;;;2.20;;
11653;SDS011;5883;48.818;9.114;2023-08-06T04:54:04;2.85;;;1.92;;
11653;SDS011;5883;48.818;9.114;2023-08-06T04:56:51;4.60;;;2.20;;
11653;SDS011;5883;48.818;9.114;2023-08-06T04:59:38;3.42;;;1.95;;
11653;SDS011;5883;48.818;9.114;2023-08-06T05:02:24;5.88;;;2.28;;
11653;SDS011;5883;48.818;9.114;2023-08-06T05:05:09;2.53;;;1.90;;
11653;SDS011;5883;48.818;9.114;2023-08-06T05:07:55;5.65;;;2.15;;
11653;SDS011;5883;48.818;9.114;2023-08-06T05:10:41;2.45;;;2.03;;
11653;SDS011;5883;48.818;9.114;2023-08-06T05:13:28;2.45;;;1.95;;
11653;SDS011;5883;48.818;9.114;2023-08-06T05:16:14;2.92;;;1.95;;
11653;SDS011;5883;48.818;9.114;2023-08-06T05:19:00;2.65;;;1.80;;
11653;SDS011;5883;48.818;9.114;2023-08-06T05:21:44;3.53;;;1.80;;
11653;SDS011;5883;48.818;9.114;2023-08-06T05:24:29;4.07;;;1.90;;
11653;SDS011;5883;48.818;9.114;2023-08-06T05:27:17;3.42;;;1.58;;
11653;SDS011;5883;48.818;9.114;2023-08-06T05:30:06;2.17;;;1.65;;
11653;SDS011;5883;48.818;9.114;2023-08-06T05:32:51;1.60;;;1.42;;
11653;SDS011;5883;48.818;9.114;2023-08-06T05:35:37;2.55;;;1.40;;
11653;SDS011;5883;48.818;9.114;2023-08-06T05:38:23;1.60;;;1.40;;
11653;SDS011;5883;48.818;9.114;2023-08-06T05:41:08;6.22;;;1.23;;
11653;SDS011;5883;48.818;9.114;2023-08-06T05:43:53;1.90;;;0.95;;
11653;SDS011;5883;48.818;9.114;2023-08-06T05:46:39;1.38;;;0.90;;
11653;SDS011;5883;48.818;9.114;2023-08-06T05:49:24;4.35;;;0.98;;
11653;SDS011;5883;48.818;9.114;2023-08-06T05:52:10;1.77;;;0.90;;
11653;SDS011;5883;48.818;9.114;2023-08-06T05:54:55;2.45;;;0.90;;
11653;SDS011;5883;48.818;9.114;2023-08-06T05:57:39;1.00;;;0.75;;
11653;SDS011;5883;48.818;9.114;2023-08-06T06:00:24;1.95;;;0.70;;
11653;SDS011;5883;48.818;9.114;2023-08-06T06:03:11;1.15;;;0.80;;
11653;SDS011;5883;48.818;9.114;2023-08-06T06:05:56;1.77;;;1.00;;
11653;SDS011;5883;48.818;9.114;2023-08-06T06:08:41;1.17;;;0.80;;
11653;SDS011;5883;48.818;9.114;2023-08-06T06:11:26;1.48;;;0.82;;
11653;SDS011;5883;48.818;9.114;2023-08-06T06:14:12;0.73;;;0.60;;
11653;SDS011;5883;48.818;9.114;2023-08-06T06:16:57;2.33;;;0.73;;
11653;SDS011;5883;48.818;9.114;2023-08-06T06:19:43;0.80;;;0.80;;
11653;SDS011;5883;48.818;9.114;2023-08-06T06:22:28;1.52;;;0.95;;
11653;SDS011;5883;48.818;9.114;2023-08-06T06:25:13;1.02;;;0.80;;
11653;SDS011;5883;48.818;9.114;2023-08-06T06:27:58;3.28;;;0.80;;
11653;SDS011;5883;48.818;9.114;2023-08-06T06:30:43;1.05;;;0.90;;
11653;SDS011;5883;48.818;9.114;2023-08-06T06:33:28;1.67;;;0.90;;
11653;SDS011;5883;48.818;9.114;2023-08-06T06:36:15;1.92;;;0.85;;
11653;SDS011;5883;48.818;9.114;2023-08-06T06:39:00;1.42;;;0.80;;
11653;SDS011;5883;48.818;9.114;2023-08-06T06:41:45;1.00;;;0.75;;
11653;SDS011;5883;48.818;9.114;2023-08-06T06:44:30;1.02;;;0.93;;
11653;SDS011;5883;48.818;9.114;2023-08-06T06:47:15;1.75;;;0.73;;
11653;SDS011;5883;48.818;9.114;2023-08-06T06:50:01;1.20;;;0.68;;
11653;SDS011;5883;48.818;9.114;2023-08-06T06:52:48;0.70;;;0.70;;
11653;SDS011;5883;48.818;9.114;2023-08-06T06:55:32;1.65;;;0.70;;
11653;SDS011;5883;48.818;9.114;2023-08-06T06:58:17;1.02;;;0.80;;
11653;SDS011;5883;48.818;9.114;2023-08-06T07:01:02;2.78;;;0.60;;
11653;SDS011;5883;48.818;9.114;2023-08-06T07:03:47;0.90;;;0.80;;
11653;SDS011;5883;48.818;9.114;2023-08-06T07:06:32;0.60;;;0.60;;
11653;SDS011;5883;48.818;9.114;2023-08-06T07:09:19;2.45;;;0.85;;
11653;SDS011;5883;48.818;9.114;2023-08-06T07:12:04;0.88;;;0.60;;
11653;SDS011;5883;48.818;9.114;2023-08-06T07:14:49;1.00;;;0.60;;
11653;SDS011;5883;48.818;9.114;2023-08-06T07:17:34;0.70;;;0.50;;
11653;SDS011;5883;48.818;9.114;2023-08-06T07:20:19;1.02;;;0.60;;
11653;SDS011;5883;48.818;9.114;2023-08-06T07:23:05;0.80;;;0.70;;
11653;SDS011;5883;48.818;9.114;2023-08-06T07:25:51;0.60;;;0.60;;
11653;SDS011;5883;48.818;9.114;2023-08-06T07:28:37;0.70;;;0.70;;
11653;SDS011;5883;48.818;9.114;2023-08-06T07:31:22;2.25;;;0.80;;
11653;SDS011;5883;48.818;9.114;2023-08-06T07:34:07;2.40;;;0.88;;
11653;SDS011;5883;48.818;9.114;2023-08-06T07:36:52;0.93;;;0.60;;
11653;SDS011;5883;48.818;9.114;2023-08-06T07:39:38;1.48;;;0.70;;
11653;SDS011;5883;48.818;9.114;2023-08-06T07:42:27;3.33;;;0.50;;
11653;SDS011;5883;48.818;9.114;2023-08-06T07:45:12;0.50;;;0.50;;
11653;SDS011;5883;48.818;9.114;2023-08-06T07:47:57;0.60;;;0.60;;
11653;SDS011;5883;48.818;9.114;2023-08-06T07:50:42;0.65;;;0.50;;
11653;SDS011;5883;48.818;9.114;2023-08-06T07:53:33;0.80;;;0.68;;
11653;SDS011;5883;48.818;9.114;2023-08-06T07:56:21;0.73;;;0.70;;
11653;SDS011;5883;48.818;9.114;2023-08-06T07:59:07;0.60;;;0.60;;
11653;SDS011;5883;48.818;9.114;2023-08-06T08:01:53;0.68;;;0.50;;
11653;SDS011;5883;48.818;9.114;2023-08-06T08:04:38;0.40;;;0.40;;
11653;SDS011;5883;48.818;9.114;2023-08-06T08:07:23;0.75;;;0.65;;
11653;SDS011;5883;48.818;9.114;2023-08-06T08:10:07;1.05;;;0.73;;
11653;SDS011;5883;48.818;9.114;2023-08-06T08:12:52;2.05;;;0.65;;
11653;SDS011;5883;48.818;9.114;2023-08-06T08:15:39;1.15;;;0.70;;
11653;SDS011;5883;48.818;9.114;2023-08-06T08:18:24;0.55;;;0.55;;
11653;SDS011;5883;48.818;9.114;2023-08-06T08:21:09;0.50;;;0.50;;
11653;SDS011;5883;48.818;9.114;2023-08-06T08:23:54;2.20;;;0.70;;
11653;SDS011;5883;48.818;9.114;2023-08-06T08:26:41;0.47;;;0.47;;
11653;SDS011;5883;48.818;9.114;2023-08-06T08:29:26;0.52;;;0.50;;
11653;SDS011;5883;48.818;9.114;2023-08-06T08:32:13;0.40;;;0.40;;
11653;SDS011;5883;48.818;9.114;2023-08-06T08:34:57;1.00;;;0.50;;
11653;SDS011;5883;48.818;9.114;2023-08-06T08:37:42;0.50;;;0.50;;
11653;SDS011;5883;48.818;9.114;2023-08-06T08:40:28;4.40;;;0.60;;
11653;SDS011;5883;48.818;9.114;2023-08-06T08:43:14;0.85;;;0.50;;
11653;SDS011;5883;48.818;9.114;2023-08-06T08:46:00;0.52;;;0.35;;
11653;SDS011;5883;48.818;9.114;2023-08-06T08:48:47;0.65;;;0.43;;
11653;SDS011;5883;48.818;9.114;2023-08-06T08:51:33;1.65;;;0.45;;
11653;SDS011;5883;48.818;9.114;2023-08-06T08:54:18;1.15;;;0.60;;
11653;SDS011;5883;48.818;9.114;2023-08-06T08:57:04;0.30;;;0.30;;
11653;SDS011;5883;48.818;9.114;2023-08-06T08:59:49;0.40;;;0.40;;
11653;SDS011;5883;48.818;9.114;2023-08-06T09:02:34;2.83;;;0.50;;
11653;SDS011;5883;48.818;9.114;2023-08-06T09:05:22;0.40;;;0.40;;
11653;SDS011;5883;48.818;9.114;2023-08-06T09:08:08;0.98;;;0.50;;
11653;SDS011;5883;48.818;9.114;2023-08-06T09:10:57;0.40;;;0.40;;
11653;SDS011;5883;48.818;9.114;2023-08-06T09:13:45;0.90;;;0.50;;
11653;SDS011;5883;48.818;9.114;2023-08-06T09:16:30;0.98;;;0.50;;
11653;SDS011;5883;48.818;9.114;2023-08-06T09:19:15;0.40;;;0.40;;
11653;SDS011;5883;48.818;9.114;2023-08-06T09:22:02;0.50;;;0.50;;
11653;SDS011;5883;48.818;9.114;2023-08-06T09:24:55;0.43;;;0.40;;
11653;SDS011;5883;48.818;9.114;2023-08-06T09:27:40;0.90;;;0.40;;
11653;SDS011;5883;48.818;9.114;2023-08-06T09:30:31;1.30;;;0.57;;
11653;SDS011;5883;48.818;9.114;2023-08-06T09:33:17;0.52;;;0.50;;
11653;SDS011;5883;48.818;9.114;2023-08-06T09:36:07;1.20;;;0.45;;
11653;SDS011;5883;48.818;9.114;2023-08-06T09:38:53;0.40;;;0.40;;
11653;SDS011;5883;48.818;9.114;2023-08-06T09:41:38;0.47;;;0.43;;
11653;SDS011;5883;48.818;9.114;2023-08-06T09:44:24;0.40;;;0.40;;
11653;SDS011;5883;48.818;9.114;2023-08-06T09:47:10;0.40;;;0.40;;
11653;SDS011;5883;48.818;9.114;2023-08-06T09:49:56;0.40;;;0.40;;
11653;SDS011;5883;48.818;9.114;2023-08-06T09:52:41;0.40;;;0.40;;
11653;SDS011;5883;48.818;9.114;2023-08-06T09:55:29;0.40;;;0.40;;
11653;SDS011;5883;48.818;9.114;2023-08-06T09:58:14;0.40;;;0.40;;
11653;SDS011;5883;48.818;9.114;2023-08-06T10:01:00;0.55;;;0.55;;
11653;SDS011;5883;48.818;9.114;2023-08-06T10:03:46;0.38;;;0.38;;
11653;SDS011;5883;48.818;9.114;2023-08-06T10:06:33;0.55;;;0.50;;
11653;SDS011;5883;48.818;9.114;2023-08-06T10:09:19;0.40;;;0.40;;
11653;SDS011;5883;48.818;9.114;2023-08-06T10:12:06;0.50;;;0.50;;
11653;SDS011;5883;48.818;9.114;2023-08-06T10:14:51;0.55;;;0.50;;
11653;SDS011;5883;48.818;9.114;2023-08-06T10:17:39;0.43;;;0.43;;
11653;SDS011;5883;48.818;9.114;2023-08-06T10:20:25;0.50;;;0.50;;
11653;SDS011;5883;48.818;9.114;2023-08-06T10:23:10;1.10;;;0.50;;
11653;SDS011;5883;48.818;9.114;2023-08-06T10:25:57;1.70;;;0.50;;
11653;SDS011;5883;48.818;9.114;2023-08-06T10:28:44;0.40;;;0.40;;
11653;SDS011;5883;48.818;9.114;2023-08-06T10:37:37;0.75;;;0.50;;
11653;SDS011;5883;48.818;9.114;2023-08-06T10:40:24;0.40;;;0.40;;
11653;SDS011;5883;48.818;9.114;2023-08-06T10:43:24;0.40;;;0.40;;
11653;SDS011;5883;48.818;9.114;2023-08-06T10:46:11;0.40;;;0.40;;
11653;SDS011;5883;48.818;9.114;2023-08-06T10:48:56;3.30;;;0.57;;
11653;SDS011;5883;48.818;9.114;2023-08-06T10:51:41;0.55;;;0.50;;
11653;SDS011;5883;48.818;9.114;2023-08-06T10:54:26;0.40;;;0.40;;
11653;SDS011;5883;48.818;9.114;2023-08-06T10:57:12;0.40;;;0.40;;
11653;SDS011;5883;48.818;9.114;2023-08-06T10:59:57;0.43;;;0.43;;
11653;SDS011;5883;48.818;9.114;2023-08-06T11:02:44;1.20;;;0.80;;
11653;SDS011;5883;48.818;9.114;2023-08-06T11:05:29;0.60;;;0.60;;
11653;SDS011;5883;48.818;9.114;2023-08-06T11:08:22;0.60;;;0.60;;
11653;SDS011;5883;48.818;9.114;2023-08-06T11:11:08;0.63;;;0.63;;
11653;SDS011;5883;48.818;9.114;2023-08-06T11:13:55;0.70;;;0.70;;
11653;SDS011;5883;48.818;9.114;2023-08-06T11:16:40;0.77;;;0.70;;
11653;SDS011;5883;48.818;9.114;2023-08-06T11:19:26;0.63;;;0.63;;
11653;SDS011;5883;48.818;9.114;2023-08-06T11:22:13;0.52;;;0.52;;
11653;SDS011;5883;48.818;9.114;2023-08-06T11:24:58;0.70;;;0.60;;
11653;SDS011;5883;48.818;9.114;2023-08-06T11:27:44;1.08;;;0.70;;
11653;SDS011;5883;48.818;9.114;2023-08-06T11:30:29;2.47;;;0.80;;
11653;SDS011;5883;48.818;9.114;2023-08-06T11:33:14;1.65;;;0.95;;
11653;SDS011;5883;48.818;9.114;2023-08-06T11:36:01;0.85;;;0.80;;
11653;SDS011;5883;48.818;9.114;2023-08-06T11:38:46;1.95;;;1.05;;
11653;SDS011;5883;48.818;9.114;2023-08-06T11:41:31;1.30;;;1.10;;
11653;SDS011;5883;48.818;9.114;2023-08-06T11:44:17;1.00;;;0.90;;
11653;SDS011;5883;48.818;9.114;2023-08-06T11:47:04;1.85;;;0.93;;
11653;SDS011;5883;48.818;9.114;2023-08-06T11:49:49;1.08;;;0.98;;
11653;SDS011;5883;48.818;9.114;2023-08-06T11:52:38;1.77;;;1.33;;
11653;SDS011;5883;48.818;9.114;2023-08-06T11:55:24;1.10;;;1.00;;
11653;SDS011;5883;48.818;9.114;2023-08-06T11:58:10;2.42;;;1.30;;
11653;SDS011;5883;48.818;9.114;2023-08-06T12:00:56;2.95;;;1.25;;
11653;SDS011;5883;48.818;9.114;2023-08-06T12:03:42;1.45;;;1.08;;
11653;SDS011;5883;48.818;9.114;2023-08-06T12:06:27;1.42;;;1.10;;
11653;SDS011;5883;48.818;9.114;2023-08-06T12:09:13;2.35;;;1.45;;
11653;SDS011;5883;48.818;9.114;2023-08-06T12:11:59;1.90;;;1.50;;
11653;SDS011;5883;48.818;9.114;2023-08-06T12:14:43;1.63;;;1.30;;
11653;SDS011;5883;48.818;9.114;2023-08-06T12:17:28;1.20;;;1.10;;
11653;SDS011;5883;48.818;9.114;2023-08-06T12:20:13;1.67;;;1.40;;
11653;SDS011;5883;48.818;9.114;2023-08-06T12:22:58;4.03;;;1.30;;
11653;SDS011;5883;48.818;9.114;2023-08-06T12:25:45;1.90;;;1.48;;
11653;SDS011;5883;48.818;9.114;2023-08-06T12:28:30;3.88;;;1.40;;
11653;SDS011;5883;48.818;9.114;2023-08-06T12:31:14;2.58;;;1.55;;
11653;SDS011;5883;48.818;9.114;2023-08-06T12:34:03;1.55;;;1.30;;
11653;SDS011;5883;48.818;9.114;2023-08-06T12:36:48;1.50;;;1.27;;
11653;SDS011;5883;48.818;9.114;2023-08-06T12:39:34;2.60;;;1.40;;
11653;SDS011;5883;48.818;9.114;2023-08-06T12:42:21;1.67;;;1.13;;
11653;SDS011;5883;48.818;9.114;2023-08-06T12:45:08;2.17;;;1.23;;
11653;SDS011;5883;48.818;9.114;2023-08-06T12:47:53;1.00;;;0.90;;
11653;SDS011;5883;48.818;9.114;2023-08-06T12:50:38;1.80;;;1.00;;
11653;SDS011;5883;48.818;9.114;2023-08-06T12:53:25;0.80;;;0.80;;
11653;SDS011;5883;48.818;9.114;2023-08-06T12:56:10;3.30;;;1.15;;
11653;SDS011;5883;48.818;9.114;2023-08-06T12:58:57;1.00;;;0.90;;
11653;SDS011;5883;48.818;9.114;2023-08-06T13:01:43;1.20;;;0.90;;
11653;SDS011;5883;48.818;9.114;2023-08-06T13:04:28;0.95;;;0.68;;
11653;SDS011;5883;48.818;9.114;2023-08-06T13:07:14;0.70;;;0.70;;
11653;SDS011;5883;48.818;9.114;2023-08-06T13:09:59;0.80;;;0.80;;
11653;SDS011;5883;48.818;9.114;2023-08-06T13:12:45;1.88;;;1.00;;
11653;SDS011;5883;48.818;9.114;2023-08-06T13:15:32;0.93;;;0.70;;
11653;SDS011;5883;48.818;9.114;2023-08-06T13:18:17;1.10;;;1.00;;
11653;SDS011;5883;48.818;9.114;2023-08-06T13:21:03;2.45;;;1.10;;
11653;SDS011;5883;48.818;9.114;2023-08-06T13:23:48;1.75;;;0.88;;
11653;SDS011;5883;48.818;9.114;2023-08-06T13:26:32;0.85;;;0.80;;
11653;SDS011;5883;48.818;9.114;2023-08-06T13:29:18;1.15;;;0.90;;
11653;SDS011;5883;48.818;9.114;2023-08-06T13:32:04;1.10;;;0.90;;
11653;SDS011;5883;48.818;9.114;2023-08-06T13:34:50;2.88;;;0.90;;
11653;SDS011;5883;48.818;9.114;2023-08-06T13:37:34;2.05;;;0.70;;
11653;SDS011;5883;48.818;9.114;2023-08-06T13:40:20;0.93;;;0.63;;
11653;SDS011;5883;48.818;9.114;2023-08-06T13:43:05;0.60;;;0.60;;
11653;SDS011;5883;48.818;9.114;2023-08-06T13:45:50;0.80;;;0.65;;
11653;SDS011;5883;48.818;9.114;2023-08-06T13:48:37;1.65;;;0.70;;
11653;SDS011;5883;48.818;9.114;2023-08-06T13:51:22;0.90;;;0.70;;
11653;SDS011;5883;48.818;9.114;2023-08-06T13:54:07;0.65;;;0.65;;
11653;SDS011;5883;48.818;9.114;2023-08-06T13:56:52;1.35;;;0.88;;
11653;SDS011;5883;48.818;9.114;2023-08-06T13:59:37;0.93;;;0.63;;
11653;SDS011;5883;48.818;9.114;2023-08-06T14:02:22;0.75;;;0.70;;
11653;SDS011;5883;48.818;9.114;2023-08-06T14:05:09;0.70;;;0.70;;
11653;SDS011;5883;48.818;9.114;2023-08-06T14:07:54;3.58;;;1.08;;
11653;SDS011;5883;48.818;9.114;2023-08-06T14:10:40;4.32;;;0.80;;
11653;SDS011;5883;48.818;9.114;2023-08-06T14:13:25;0.90;;;0.80;;
11653;SDS011;5883;48.818;9.114;2023-08-06T14:16:11;0.70;;;0.70;;
11653;SDS011;5883;48.818;9.114;2023-08-06T14:18:56;2.58;;;0.75;;
11653;SDS011;5883;48.818;9.114;2023-08-06T14:21:44;0.93;;;0.75;;
11653;SDS011;5883;48.818;9.114;2023-08-06T14:24:29;0.77;;;0.77;;
11653;SDS011;5883;48.818;9.114;2023-08-06T14:27:17;2.92;;;0.82;;
11653;SDS011;5883;48.818;9.114;2023-08-06T14:30:03;0.93;;;0.80;;
11653;SDS011;5883;48.818;9.114;2023-08-06T14:32:48;3.38;;;0.95;;
11653;SDS011;5883;48.818;9.114;2023-08-06T14:35:33;0.70;;;0.70;;
11653;SDS011;5883;48.818;9.114;2023-08-06T14:38:19;0.70;;;0.70;;
11653;SDS011;5883;48.818;9.114;2023-08-06T14:41:04;1.27;;;0.93;;
11653;SDS011;5883;48.818;9.114;2023-08-06T14:43:51;5.25;;;0.90;;
11653;SDS011;5883;48.818;9.114;2023-08-06T14:46:36;1.85;;;0.88;;
11653;SDS011;5883;48.818;9.114;2023-08-06T14:49:22;2.70;;;0.98;;
11653;SDS011;5883;48.818;9.114;2023-08-06T14:52:07;1.10;;;0.90;;
11653;SDS011;5883;48.818;9.114;2023-08-06T14:54:53;1.35;;;0.85;;
11653;SDS011;5883;48.818;9.114;2023-08-06T14:57:42;1.00;;;0.77;;
11653;SDS011;5883;48.818;9.114;2023-08-06T15:00:28;1.90;;;0.80;;
11653;SDS011;5883;48.818;9.114;2023-08-06T15:03:13;1.20;;;0.80;;
11653;SDS011;5883;48.818;9.114;2023-08-06T15:05:58;1.35;;;0.90;;
11653;SDS011;5883;48.818;9.114;2023-08-06T15:08:43;0.70;;;0.70;;
11653;SDS011;5883;48.818;9.114;2023-08-06T15:11:31;1.25;;;0.90;;
11653;SDS011;5883;48.818;9.114;2023-08-06T15:14:19;0.93;;;0.88;;
11653;SDS011;5883;48.818;9.114;2023-08-06T15:17:04;1.35;;;0.85;;
11653;SDS011;5883;48.818;9.114;2023-08-06T15:19:50;0.80;;;0.80;;
11653;SDS011;5883;48.818;9.114;2023-08-06T15:22:35;0.80;;;0.80;;
11653;SDS011;5883;48.818;9.114;2023-08-06T15:25:19;1.55;;;1.35;;
11653;SDS011;5883;48.818;9.114;2023-08-06T15:28:06;0.77;;;0.77;;
11653;SDS011;5883;48.818;9.114;2023-08-06T15:30:52;0.60;;;0.60;;
11653;SDS011;5883;48.818;9.114;2023-08-06T15:33:37;1.30;;;0.77;;
11653;SDS011;5883;48.818;9.114;2023-08-06T15:36:24;1.02;;;0.80;;
11653;SDS011;5883;48.818;9.114;2023-08-06T15:39:09;0.77;;;0.73;;
11653;SDS011;5883;48.818;9.114;2023-08-06T15:41:55;1.60;;;0.60;;
11653;SDS011;5883;48.818;9.114;2023-08-06T15:44:41;0.98;;;0.80;;
11653;SDS011;5883;48.818;9.114;2023-08-06T15:47:26;0.70;;;0.70;;
11653;SDS011;5883;48.818;9.114;2023-08-06T15:50:12;0.77;;;0.70;;
11653;SDS011;5883;48.818;9.114;2023-08-06T15:52:59;1.77;;;0.82;;
11653;SDS011;5883;48.818;9.114;2023-08-06T15:55:45;3.65;;;1.05;;
11653;SDS011;5883;48.818;9.114;2023-08-06T15:58:31;1.73;;;0.75;;
11653;SDS011;5883;48.818;9.114;2023-08-06T16:01:17;0.68;;;0.68;;
11653;SDS011;5883;48.818;9.114;2023-08-06T16:04:03;1.60;;;0.90;;
11653;SDS011;5883;48.818;9.114;2023-08-06T16:06:48;2.17;;;0.90;;
11653;SDS011;5883;48.818;9.114;2023-08-06T16:09:33;0.95;;;0.80;;
11653;SDS011;5883;48.818;9.114;2023-08-06T16:12:18;1.20;;;0.85;;
11653;SDS011;5883;48.818;9.114;2023-08-06T16:15:04;1.17;;;0.90;;
11653;SDS011;5883;48.818;9.114;2023-08-06T16:17:51;0.80;;;0.80;;
11653;SDS011;5883;48.818;9.114;2023-08-06T16:20:40;1.50;;;0.90;;
11653;SDS011;5883;48.818;9.114;2023-08-06T16:23:25;0.93;;;0.85;;
11653;SDS011;5883;48.818;9.114;2023-08-06T16:26:10;1.08;;;0.70;;
11653;SDS011;5883;48.818;9.114;2023-08-06T16:28:55;2.78;;;0.90;;
11653;SDS011;5883;48.818;9.114;2023-08-06T16:31:40;1.27;;;0.90;;
11653;SDS011;5883;48.818;9.114;2023-08-06T16:34:26;1.40;;;1.00;;
11653;SDS011;5883;48.818;9.114;2023-08-06T16:37:11;3.35;;;0.80;;
11653;SDS011;5883;48.818;9.114;2023-08-06T16:39:58;1.33;;;0.85;;
11653;SDS011;5883;48.818;9.114;2023-08-06T16:42:43;1.20;;;0.90;;
11653;SDS011;5883;48.818;9.114;2023-08-06T16:45:29;1.17;;;1.00;;
11653;SDS011;5883;48.818;9.114;2023-08-06T16:48:14;1.00;;;0.90;;
11653;SDS011;5883;48.818;9.114;2023-08-06T16:51:00;3.50;;;0.98;;
11653;SDS011;5883;48.818;9.114;2023-08-06T16:53:45;2.35;;;1.15;;
11653;SDS011;5883;48.818;9.114;2023-08-06T16:56:31;1.15;;;1.00;;
11653;SDS011;5883;48.818;9.114;2023-08-06T16:59:17;2.22;;;1.20;;